Time;durP1;ratioP1;P1;durP2;ratioP2;P2;SDS_P1;SDS_P2;PMS_P1;PMS_P2;Temp;Humidity;BMP_temperature;BMP_pressure;BME280_temperature;BME280_humidity;BME280_pressure;Samples;Min_cycle;Max_cycle;Signal;HPM_P1;HPM_P2
2023/10/19 00:00:19;;;;;;;;;;;;;;;7.06;100.00;99475.34;4922741;29;19932;-78
2023/10/19 00:03:06;;;;;;;;;;;;;;;7.06;100.00;99475.34;4940841;28;20306;-78
2023/10/19 00:05:54;;;;;;;;;;;;;;;7.05;100.00;99466.63;4924921;29;19988;-82
2023/10/19 00:08:43;;;;;;;;;;;;;;;7.03;100.00;99454.47;4939631;28;19926;-78
2023/10/19 00:11:31;;;;;;;;;;;;;;;7.01;100.00;99459.81;4940796;29;20445;-79
2023/10/19 00:14:20;;;;;;;;;;;;;;;6.99;100.00;99451.16;4939142;29;19964;-75
2023/10/19 00:17:10;;;;;;;;;;;;;;;6.99;100.00;99455.56;4917084;29;19966;-76
2023/10/19 00:23:18;;;;;;;;;;;;;;;6.98;100.00;99440.69;4928517;29;20002;-78
2023/10/19 00:26:15;;;;;;;;;;;;;;;6.97;100.00;99439.84;4906428;29;19933;-78
2023/10/19 00:29:14;;;;;;;;;;;;;;;6.99;100.00;99442.38;4906545;29;20038;-78
2023/10/19 00:32:06;;;;;;;;;;;;;;;7.01;100.00;99436.13;4901805;29;19970;-78
2023/10/19 00:34:52;;;;;;;;;;;;;;;7.01;100.00;99430.00;4901330;29;20450;-78
2023/10/19 00:37:42;;;;;;;;;;;;;;;7.03;100.00;99433.41;4903675;29;19923;-77
2023/10/19 00:40:34;;;;;;;;;;;;;;;7.01;100.00;99436.13;4903690;29;19939;-78
2023/10/19 00:43:28;;;;;;;;;;;;;;;7.03;100.00;99438.69;4894296;29;19998;-81
2023/10/19 00:46:20;;;;;;;;;;;;;;;7.02;100.00;99436.94;4895210;29;19928;-78
2023/10/19 00:49:06;;;;;;;;;;;;;;;7.02;100.00;99431.69;4914851;28;19928;-77
2023/10/19 00:57:33;;;;;;;;;;;;;;;7.02;100.00;99405.38;4915129;28;19931;-78
2023/10/19 01:00:43;;;;;;;;;;;;;;;7.02;100.00;99400.97;4916951;28;19923;-79
2023/10/19 01:03:32;;;;;;;;;;;;;;;7.03;100.00;99388.69;4902346;29;20026;-79
2023/10/19 01:06:20;;;;;;;;;;;;;;;7.02;100.00;99386.94;4894640;29;19998;-78
2023/10/19 01:09:05;;;;;;;;;;;;;;;7.03;100.00;99372.88;4917092;29;19938;-78
2023/10/19 01:11:52;;;;;;;;;;;;;;;7.04;100.00;99371.94;4901350;29;19974;-78
2023/10/19 01:14:38;;;;;;;;;;;;;;;7.03;100.00;99365.81;4903752;29;19977;-78
2023/10/19 01:17:26;;;;;;;;;;;;;;;7.05;100.00;99357.84;4905059;28;19926;-78
2023/10/19 01:26:13;;;;;;;;;;;;;;;7.06;100.00;99354.28;4931773;28;19987;-78
2023/10/19 01:29:01;;;;;;;;;;;;;;;7.06;100.00;99349.03;4941972;29;19941;-78
2023/10/19 01:31:56;;;;;;;;;;;;;;;7.06;100.00;99344.63;4940414;29;21028;-78
2023/10/19 01:34:43;;;;;;;;;;;;;;;7.07;100.00;99348.94;4927658;29;19942;-78
2023/10/19 01:37:29;;;;;;;;;;;;;;;7.09;100.00;99345.38;4938072;29;19989;-77
2023/10/19 01:40:20;;;;;;;;;;;;;;;7.09;100.00;99337.47;4937193;28;19938;-78
2023/10/19 01:43:06;;;;;;;;;;;;;;;7.09;100.00;99340.97;4924111;29;20524;-79
2023/10/19 01:45:54;;;;;;;;;;;;;;;7.10;100.00;99340.03;4937811;29;20409;-78
2023/10/19 01:48:40;;;;;;;;;;;;;;;7.11;100.00;99339.09;4940344;28;19942;-77
2023/10/19 01:51:28;;;;;;;;;;;;;;;7.12;100.00;99338.16;4936405;28;19931;-79
2023/10/19 01:54:14;;;;;;;;;;;;;;;7.14;100.00;99340.72;4924259;28;19930;-78
2023/10/19 01:57:03;;;;;;;;;;;;;;;7.13;100.00;99331.13;4922750;28;20322;-78
2023/10/19 01:59:49;;;;;;;;;;;;;;;7.14;100.00;99335.44;4934088;28;20434;-78
2023/10/19 02:02:35;;;;;;;;;;;;;;;7.16;100.00;99323.91;4931321;28;20033;-78
2023/10/19 02:05:22;;;;;;;;;;;;;;;7.16;100.00;99326.53;4929944;29;19941;-78
2023/10/19 02:08:07;;;;;;;;;;;;;;;7.15;100.00;99316.09;4932238;28;20390;-77
2023/10/19 02:10:53;;;;;;;;;;;;;;;7.16;100.00;99318.66;4917469;29;22061;-77
2023/10/19 02:13:39;;;;;;;;;;;;;;;7.16;100.00;99305.47;4918271;29;19961;-77
2023/10/19 02:16:25;;;;;;;;;;;;;;;7.17;100.00;99309.81;4916656;29;20054;-77
2023/10/19 02:19:11;;;;;;;;;;;;;;;7.19;100.00;99291.28;4918611;29;19973;-77
2023/10/19 02:22:08;;;;;;;;;;;;;;;7.18;100.00;99294.84;4919269;29;20371;-77
2023/10/19 02:24:53;;;;;;;;;;;;;;;7.17;100.00;99299.28;4930924;29;19922;-76
2023/10/19 02:27:39;;;;;;;;;;;;;;;7.18;100.00;99287.81;4933566;29;19938;-76
2023/10/19 02:30:24;;;;;;;;;;;;;;;7.18;100.00;99285.19;4933163;28;19930;-78
2023/10/19 02:33:13;;;;;;;;;;;;;;;7.19;100.00;99278.97;4919656;29;19934;-77
2023/10/19 02:35:59;;;;;;;;;;;;;;;7.21;100.00;99278.91;4918144;29;20059;-77
2023/10/19 02:38:48;;;;;;;;;;;;;;;7.22;100.00;99269.19;4935195;28;20549;-77
2023/10/19 02:41:48;;;;;;;;;;;;;;;7.24;100.00;99262.09;4937317;28;19923;-77
2023/10/19 02:44:34;;;;;;;;;;;;;;;7.25;100.00;99267.25;4937791;28;19927;-77
2023/10/19 02:47:23;;;;;;;;;;;;;;;7.27;100.00;99267.16;4937913;29;19930;-77
2023/10/19 02:50:13;;;;;;;;;;;;;;;7.27;100.00;99265.38;4939640;29;19933;-77
2023/10/19 02:52:59;;;;;;;;;;;;;;;7.28;100.00;99250.44;4936285;29;19935;-77
2023/10/19 02:55:44;;;;;;;;;;;;;;;7.30;100.00;99245.94;4936189;29;19930;-77
2023/10/19 02:58:30;;;;;;;;;;;;;;;7.30;100.00;99252.03;4919161;29;19931;-77
2023/10/19 03:01:21;;;;;;;;;;;;;;;7.30;100.00;99246.78;4935650;29;19930;-77
2023/10/19 03:04:06;;;;;;;;;;;;;;;7.30;100.00;99235.41;4932937;29;19930;-77
2023/10/19 03:06:52;;;;;;;;;;;;;;;7.30;100.00;99228.34;4937308;29;19930;-77
2023/10/19 03:09:48;;;;;;;;;;;;;;;7.30;100.00;99232.78;4936941;28;20021;-76
2023/10/19 03:12:35;;;;;;;;;;;;;;;7.33;100.00;99240.47;4936612;29;19963;-77
2023/10/19 03:15:21;;;;;;;;;;;;;;;7.33;100.00;99233.44;4923601;28;19930;-77
2023/10/19 03:18:07;;;;;;;;;;;;;;;7.35;100.00;99225.44;4936995;29;19934;-78
2023/10/19 03:20:53;;;;;;;;;;;;;;;7.39;100.00;99236.63;4934831;29;19982;-77
2023/10/19 03:23:40;;;;;;;;;;;;;;;7.40;100.00;99233.94;4936185;29;19931;-78
2023/10/19 03:26:36;;;;;;;;;;;;;;;7.39;100.00;99229.59;4921181;29;19930;-76
2023/10/19 03:29:26;;;;;;;;;;;;;;;7.41;100.00;99227.72;4937322;29;19935;-77
2023/10/19 03:32:12;;;;;;;;;;;;;;;7.43;100.00;99225.00;4937691;29;19953;-78
2023/10/19 03:34:59;;;;;;;;;;;;;;;7.44;100.00;99226.69;4936496;29;20578;-77
2023/10/19 03:37:48;;;;;;;;;;;;;;;7.45;100.00;99226.63;4921244;29;20058;-80
2023/10/19 03:40:38;;;;;;;;;;;;;;;7.47;100.00;99230.00;4923886;29;19927;-78
2023/10/19 03:43:26;;;;;;;;;;;;;;;7.48;100.00;99231.69;4937230;29;19941;-78
2023/10/19 03:46:28;;;;;;;;;;;;;;;7.50;100.00;99236.00;4938526;29;19926;-79
2023/10/19 03:49:16;;;;;;;;;;;;;;;7.51;100.00;99228.03;4940276;29;20573;-78
2023/10/19 03:54:57;;;;;;;;;;;;;;;7.52;100.00;99228.91;4937217;29;19930;-77
2023/10/19 03:57:47;;;;;;;;;;;;;;;7.52;100.00;99219.19;4937024;29;19927;-78
2023/10/19 04:00:34;;;;;;;;;;;;;;;7.54;100.00;99232.28;4924542;29;19923;-76
2023/10/19 04:03:24;;;;;;;;;;;;;;;7.56;100.00;99219.84;4941118;28;20033;-78
2023/10/19 04:06:16;;;;;;;;;;;;;;;7.58;100.00;99218.00;4923656;29;19931;-77
2023/10/19 04:09:04;;;;;;;;;;;;;;;7.59;100.00;99209.97;4937524;29;19927;-76
2023/10/19 04:11:51;;;;;;;;;;;;;;;7.62;100.00;99203.69;4936087;29;19938;-78
2023/10/19 04:14:38;;;;;;;;;;;;;;;7.64;100.00;99208.88;4935330;29;19934;-78
2023/10/19 04:17:24;;;;;;;;;;;;;;;7.65;100.00;99208.78;4933595;28;19958;-78
2023/10/19 04:23:10;;;;;;;;;;;;;;;7.68;100.00;99197.22;4933251;29;19931;-78
2023/10/19 04:26:03;;;;;;;;;;;;;;;7.70;100.00;99196.22;4917598;29;19931;-78
2023/10/19 04:28:49;;;;;;;;;;;;;;;7.71;100.00;99203.16;4924126;29;19930;-77
2023/10/19 04:31:37;;;;;;;;;;;;;;;7.72;100.00;99199.59;4934895;29;19930;-78
2023/10/19 04:34:25;;;;;;;;;;;;;;;7.73;100.00;99193.38;4939989;28;19931;-77
2023/10/19 04:37:18;;;;;;;;;;;;;;;7.74;100.00;99192.44;4929407;29;19977;-77
2023/10/19 04:40:04;;;;;;;;;;;;;;;7.76;100.00;99189.72;4922173;29;19941;-78
2023/10/19 04:42:53;;;;;;;;;;;;;;;7.78;100.00;99187.00;4938059;28;20021;-78
2023/10/19 04:45:42;;;;;;;;;;;;;;;7.79;100.00;99186.88;4936520;28;19926;-77
2023/10/19 04:48:27;;;;;;;;;;;;;;;7.80;100.00;99195.63;4920613;29;19938;-77
2023/10/19 04:51:13;;;;;;;;;;;;;;;7.81;100.00;99192.94;4934824;29;19954;-78
2023/10/19 04:54:02;;;;;;;;;;;;;;;7.82;100.00;99184.06;4919996;29;19954;-77
2023/10/19 04:56:48;;;;;;;;;;;;;;;7.82;100.00;99184.06;4934063;29;19933;-78
2023/10/19 04:59:33;;;;;;;;;;;;;;;7.83;100.00;99179.63;4937324;28;19931;-78
2023/10/19 05:02:19;;;;;;;;;;;;;;;7.85;100.00;99183.88;4921691;29;19942;-76
2023/10/19 05:05:05;;;;;;;;;;;;;;;7.87;100.00;99191.69;4937074;29;19926;-77
2023/10/19 05:07:50;;;;;;;;;;;;;;;7.87;100.00;99186.44;4938593;29;19931;-77
2023/10/19 05:10:36;;;;;;;;;;;;;;;7.90;100.00;99185.41;4938757;29;19937;-77
2023/10/19 05:13:23;;;;;;;;;;;;;;;7.90;100.00;99188.84;4936223;29;19982;-77
2023/10/19 05:16:08;;;;;;;;;;;;;;;7.91;100.00;99182.69;4909520;29;19926;-78
2023/10/19 05:18:54;;;;;;;;;;;;;;;7.93;100.00;99185.19;4919572;29;20420;-76
2023/10/19 05:21:43;;;;;;;;;;;;;;;7.93;100.00;99199.22;4924715;29;19961;-77
2023/10/19 05:24:29;;;;;;;;;;;;;;;7.93;100.00;99196.59;4936811;29;19931;-77
2023/10/19 05:27:15;;;;;;;;;;;;;;;7.93;100.00;99201.88;4937028;29;20306;-77
2023/10/19 05:30:02;;;;;;;;;;;;;;;7.93;100.00;99193.97;4936370;29;19946;-77
2023/10/19 05:32:49;;;;;;;;;;;;;;;7.95;100.00;99196.50;4931440;29;19941;-78
2023/10/19 05:35:40;;;;;;;;;;;;;;;7.97;100.00;99197.25;4908489;28;19927;-77
2023/10/19 05:38:27;;;;;;;;;;;;;;;7.98;100.00;99191.91;4928284;28;19944;-77
2023/10/19 05:41:12;;;;;;;;;;;;;;;8.00;100.00;99192.66;4936464;29;19938;-79
2023/10/19 05:43:58;;;;;;;;;;;;;;;8.02;100.00;99189.94;4935480;29;19927;-78
2023/10/19 05:46:44;;;;;;;;;;;;;;;8.02;100.00;99196.03;4937476;29;20705;-78
2023/10/19 05:49:29;;;;;;;;;;;;;;;8.04;100.00;99197.72;4920689;29;19930;-78
2023/10/19 05:52:15;;;;;;;;;;;;;;;8.05;100.00;99209.97;4935212;29;20374;-78
2023/10/19 05:55:01;;;;;;;;;;;;;;;8.04;100.00;99203.84;4924617;29;19931;-77
2023/10/19 05:57:47;;;;;;;;;;;;;;;8.05;100.00;99215.25;4935170;29;21450;-77
2023/10/19 06:00:35;;;;;;;;;;;;;;;8.05;100.00;99209.97;4936037;29;19934;-77
2023/10/19 06:03:21;;;;;;;;;;;;;;;8.04;100.00;99209.13;4920473;29;19935;-78
2023/10/19 06:06:06;;;;;;;;;;;;;;;8.06;100.00;99222.22;4910330;29;21446;-78
2023/10/19 06:08:53;;;;;;;;;;;;;;;8.05;100.00;99217.88;4921726;28;19930;-78
2023/10/19 06:11:42;;;;;;;;;;;;;;;8.05;100.00;99215.25;4938325;28;19934;-78
2023/10/19 06:14:30;;;;;;;;;;;;;;;8.07;100.00;99222.09;4934087;29;20033;-77
2023/10/19 06:17:19;;;;;;;;;;;;;;;8.10;100.00;99231.59;4929507;28;20857;-78
2023/10/19 06:20:08;;;;;;;;;;;;;;;8.09;100.00;99233.41;4909580;29;20364;-78
2023/10/19 06:22:55;;;;;;;;;;;;;;;8.10;100.00;99223.69;4939592;29;19926;-79
2023/10/19 06:25:43;;;;;;;;;;;;;;;8.10;100.00;99234.25;4921080;29;19933;-80
2023/10/19 06:28:28;;;;;;;;;;;;;;;8.11;100.00;99230.66;4937758;29;19931;-77
2023/10/19 06:31:15;;;;;;;;;;;;;;;8.12;100.00;99240.28;4936587;29;20706;-78
2023/10/19 06:34:00;;;;;;;;;;;;;;;8.14;100.00;99248.94;4937592;29;19927;-79
2023/10/19 06:36:46;;;;;;;;;;;;;;;8.13;100.00;99249.88;4936493;29;19945;-78
2023/10/19 06:39:32;;;;;;;;;;;;;;;8.12;100.00;99246.38;4922619;29;20790;-79
2023/10/19 06:42:18;;;;;;;;;;;;;;;8.13;100.00;99249.88;4937249;29;20300;-78
2023/10/19 06:45:04;;;;;;;;;;;;;;;8.13;100.00;99256.00;4935194;29;19938;-78
2023/10/19 06:47:49;;;;;;;;;;;;;;;8.15;100.00;99242.72;4935845;29;19938;-77
2023/10/19 06:50:36;;;;;;;;;;;;;;;8.17;100.00;99256.66;4939725;28;20406;-78
2023/10/19 06:53:22;;;;;;;;;;;;;;;8.19;100.00;99249.53;4918177;29;19930;-79
2023/10/19 06:56:07;;;;;;;;;;;;;;;8.21;100.00;99260.81;4921532;29;19946;-78
2023/10/19 06:58:53;;;;;;;;;;;;;;;8.22;100.00;99256.41;4936605;29;19945;-78
2023/10/19 07:01:58;;;;;;;;;;;;;;;8.23;100.00;99264.19;4923279;29;20442;-78
2023/10/19 07:04:47;;;;;;;;;;;;;;;8.24;100.00;99265.06;4935961;28;19930;-78
2023/10/19 07:07:35;;;;;;;;;;;;;;;8.24;100.00;99268.50;4937405;28;19974;-79
2023/10/19 07:10:21;;;;;;;;;;;;;;;8.26;100.00;99273.72;4925421;29;20026;-78
2023/10/19 07:13:07;;;;;;;;;;;;;;;8.27;100.00;99265.72;4934671;28;20526;-78
2023/10/19 07:15:54;;;;;;;;;;;;;;;8.30;100.00;99272.59;4919262;29;19931;-77
2023/10/19 07:18:42;;;;;;;;;;;;;;;8.30;100.00;99275.22;4916048;29;19927;-78
2023/10/19 07:21:31;;;;;;;;;;;;;;;8.31;100.00;99281.31;4932022;29;21010;-77
2023/10/19 07:24:18;;;;;;;;;;;;;;;8.30;100.00;99272.59;4907558;29;19930;-78
2023/10/19 07:27:04;;;;;;;;;;;;;;;8.29;100.00;99277.00;4921835;29;20125;-79
2023/10/19 07:29:50;;;;;;;;;;;;;;;8.31;100.00;99274.28;4925447;29;19981;-79
2023/10/19 07:32:36;;;;;;;;;;;;;;;8.31;100.00;99276.06;4940137;29;20347;-79
2023/10/19 07:35:22;;;;;;;;;;;;;;;8.32;100.00;99281.25;4925385;29;20017;-78
2023/10/19 07:38:08;;;;;;;;;;;;;;;8.34;100.00;99275.88;4931301;28;20023;-78
2023/10/19 07:40:54;;;;;;;;;;;;;;;8.35;100.00;99274.94;4926234;29;19968;-78
2023/10/19 07:43:39;;;;;;;;;;;;;;;8.36;100.00;99282.75;4942405;29;20398;-78
2023/10/19 07:46:25;;;;;;;;;;;;;;;8.38;100.00;99280.00;4941555;29;19935;-78
2023/10/19 07:49:14;;;;;;;;;;;;;;;8.40;100.00;99288.69;4937297;29;19946;-77
2023/10/19 07:52:00;;;;;;;;;;;;;;;8.41;100.00;99288.59;4924715;29;20845;-79
2023/10/19 07:54:46;;;;;;;;;;;;;;;8.44;100.00;99284.91;4943819;28;19927;-78
2023/10/19 07:57:34;;;;;;;;;;;;;;;8.45;100.00;99289.28;4923140;29;19926;-78
2023/10/19 08:00:20;;;;;;;;;;;;;;;8.47;100.00;99290.00;4925353;29;19931;-78
2023/10/19 08:03:05;;;;;;;;;;;;;;;8.49;100.00;99296.03;4912095;29;19949;-78
2023/10/19 08:05:51;;;;;;;;;;;;;;;8.52;100.00;99293.25;4919671;29;19969;-76
2023/10/19 08:08:37;;;;;;;;;;;;;;;8.53;100.00;99292.31;4934237;28;20010;-77
2023/10/19 08:11:23;;;;;;;;;;;;;;;8.53;100.00;99294.94;4920815;29;19923;-78
2023/10/19 08:14:14;;;;;;;;;;;;;;;8.55;100.00;99295.69;4919372;29;19930;-80
2023/10/19 08:17:00;;;;;;;;;;;;;;;8.58;100.00;99296.44;4921619;29;19938;-77
2023/10/19 08:19:46;;;;;;;;;;;;;;;8.59;100.00;99292.84;4913237;29;20005;-78
2023/10/19 08:22:31;;;;;;;;;;;;;;;8.60;100.00;99305.13;4937573;28;20431;-77
2023/10/19 08:25:18;;;;;;;;;;;;;;;8.62;100.00;99304.09;4920572;29;19938;-79
2023/10/19 08:28:04;;;;;;;;;;;;;;;8.63;100.00;99307.56;4935180;28;20301;-78
2023/10/19 08:31:02;;;;;;;;;;;;;;;8.63;100.00;99307.56;4930059;29;19926;-77
2023/10/19 08:33:48;;;;;;;;;;;;;;;8.66;100.00;99302.09;4934560;29;20138;-78
2023/10/19 08:36:34;;;;;;;;;;;;;;;8.69;100.00;99315.09;4934863;29;20752;-77
2023/10/19 08:39:19;;;;;;;;;;;;;;;8.72;100.00;99303.50;4936385;28;20426;-79
2023/10/19 08:42:05;;;;;;;;;;;;;;;8.73;100.00;99306.06;4936011;28;19982;-77
2023/10/19 08:44:54;;;;;;;;;;;;;;;8.77;100.00;99298.78;4924487;29;19934;-78
2023/10/19 08:47:48;;;;;;;;;;;;;;;8.79;100.00;99295.13;4923735;29;20067;-77
2023/10/19 08:50:34;;;;;;;;;;;;;;;8.83;100.00;99296.59;4936843;29;19922;-78
2023/10/19 08:53:20;;;;;;;;;;;;;;;8.88;100.00;99303.41;4936784;29;19934;-77
2023/10/19 08:56:08;;;;;;;;;;;;;;;8.91;100.00;99298.78;4934703;28;19931;-78
2023/10/19 08:58:54;;;;;;;;;;;;;;;8.96;100.00;99301.97;4934984;29;20382;-78
2023/10/19 09:01:39;;;;;;;;;;;;;;;9.03;100.00;99307.69;4931705;28;19935;-79
2023/10/19 09:04:25;;;;;;;;;;;;;;;9.06;100.00;99311.94;4936497;29;19946;-77
2023/10/19 09:07:11;;;;;;;;;;;;;;;9.08;100.00;99310.91;4936244;28;19990;-78
2023/10/19 09:09:57;;;;;;;;;;;;;;;9.10;100.00;99324.00;4921119;28;20053;-78
2023/10/19 09:12:43;;;;;;;;;;;;;;;9.12;100.00;99326.53;4920193;29;19930;-77
2023/10/19 09:15:32;;;;;;;;;;;;;;;9.13;100.00;99322.94;4938381;29;20335;-78
2023/10/19 09:18:18;;;;;;;;;;;;;;;9.14;100.00;99324.66;4918980;29;19927;-79
2023/10/19 09:21:07;;;;;;;;;;;;;;;9.15;100.00;99324.53;4936938;29;20414;-78
2023/10/19 09:23:54;;;;;;;;;;;;;;;9.17;100.00;99324.44;4923415;29;19969;-79
2023/10/19 09:26:40;;;;;;;;;;;;;;;9.17;100.00;99325.31;4919908;29;21802;-80
2023/10/19 09:29:25;;;;;;;;;;;;;;;9.20;100.00;99321.59;4920199;29;19926;-78
2023/10/19 09:32:13;;;;;;;;;;;;;;;9.21;100.00;99318.03;4934345;29;19938;-78
2023/10/19 09:34:59;;;;;;;;;;;;;;;9.23;100.00;99318.78;4933613;29;19949;-78
2023/10/19 09:37:47;;;;;;;;;;;;;;;9.24;100.00;99309.91;4911178;29;20014;-78
2023/10/19 09:40:34;;;;;;;;;;;;;;;9.24;100.00;99315.19;4935154;29;19931;-77
2023/10/19 09:43:26;;;;;;;;;;;;;;;9.25;100.00;99303.69;4939148;28;19935;-78
2023/10/19 09:46:12;;;;;;;;;;;;;;;9.26;100.00;99301.91;4919644;29;20442;-78
2023/10/19 09:49:00;;;;;;;;;;;;;;;9.28;100.00;99294.72;4935528;29;19958;-80
2023/10/19 09:51:49;;;;;;;;;;;;;;;9.28;100.00;99292.94;4924435;29;19935;-81
2023/10/19 09:54:37;;;;;;;;;;;;;;;9.31;100.00;99290.06;4921747;29;19982;-79
2023/10/19 09:57:28;;;;;;;;;;;;;;;9.32;100.00;99283.84;4924006;29;19931;-79
2023/10/19 10:00:15;;;;;;;;;;;;;;;9.35;100.00;99293.38;4922921;28;19926;-80
2023/10/19 10:03:02;;;;;;;;;;;;;;;9.35;100.00;99288.94;4936831;28;19930;-78
2023/10/19 10:05:48;;;;;;;;;;;;;;;9.36;100.00;99288.00;4937215;28;21785;-78
2023/10/19 10:08:35;;;;;;;;;;;;;;;9.40;100.00;99285.13;4934406;29;19931;-78
2023/10/19 10:11:26;;;;;;;;;;;;;;;9.41;100.00;99274.47;4937244;29;19923;-78
2023/10/19 10:14:20;;;;;;;;;;;;;;;9.44;100.00;99274.28;4919563;29;19938;-78
2023/10/19 10:17:09;;;;;;;;;;;;;;;9.49;100.00;99276.63;4939475;29;19938;-82
2023/10/19 10:20:22;;;;;;;;;;;;;;;9.53;100.00;99266.69;4941272;29;20551;-82
2023/10/19 10:23:21;;;;;;;;;;;;;;;9.57;100.00;99263.75;4935686;28;19937;-82
2023/10/19 10:26:09;;;;;;;;;;;;;;;9.61;100.00;99264.38;4909727;29;19937;-83
2023/10/19 10:29:11;;;;;;;;;;;;;;;9.63;100.00;99258.06;4896706;29;19963;-85
2023/10/19 10:31:58;;;;;;;;;;;;;;;9.65;100.00;99264.06;4902004;29;19931;-83
2023/10/19 10:34:44;;;;;;;;;;;;;;;9.69;100.00;99272.66;4905684;29;19927;-83
2023/10/19 10:37:33;;;;;;;;;;;;;;;9.72;100.00;99272.47;4903013;29;19927;-86
2023/10/19 10:40:20;;;;;;;;;;;;;;;9.76;100.00;99270.47;4904029;29;19990;-84
2023/10/19 10:43:06;;;;;;;;;;;;;;;9.81;100.00;99275.44;4899906;29;20376;-83
2023/10/19 10:45:52;;;;;;;;;;;;;;;9.85;100.00;99280.41;4896599;29;19942;-83
2023/10/19 10:48:41;;;;;;;;;;;;;;;9.90;100.00;99285.38;4896044;29;19924;-82
2023/10/19 10:51:28;;;;;;;;;;;;;;;9.96;100.00;99273.56;4900334;29;19935;-83
2023/10/19 10:54:14;;;;;;;;;;;;;;;10.02;100.00;99278.41;4900112;29;20017;-82
2023/10/19 10:57:00;;;;;;;;;;;;;;;10.10;100.00;99269.94;4900013;29;19967;-83
2023/10/19 10:59:45;;;;;;;;;;;;;;;10.16;100.00;99270.38;4897224;29;19930;-82
2023/10/19 11:02:32;;;;;;;;;;;;;;;10.23;100.00;99276.09;4899847;29;19931;-82
2023/10/19 11:05:18;;;;;;;;;;;;;;;10.28;100.00;99275.75;4893880;29;19927;-82
2023/10/19 11:08:04;;;;;;;;;;;;;;;10.31;100.00;99276.41;4900381;29;19927;-82
2023/10/19 11:10:50;;;;;;;;;;;;;;;10.33;100.00;99271.00;4894398;29;20003;-81
2023/10/19 11:13:35;;;;;;;;;;;;;;;10.35;100.00;99279.66;4904191;29;19945;-82
2023/10/19 11:16:22;;;;;;;;;;;;;;;10.36;100.00;99268.16;4898605;29;19927;-81
2023/10/19 11:19:09;;;;;;;;;;;;;;;10.39;100.00;99273.22;4885769;29;19927;-82
2023/10/19 11:21:55;;;;;;;;;;;;;;;10.42;100.00;99278.31;4898179;29;19942;-82
2023/10/19 11:24:40;;;;;;;;;;;;;;;10.43;100.00;99273.88;4896603;29;19970;-83
2023/10/19 11:27:26;;;;;;;;;;;;;;;10.43;100.00;99277.41;4902002;29;20054;-83
2023/10/19 11:30:12;;;;;;;;;;;;;;;10.43;100.00;99272.09;4900220;29;19953;-83
2023/10/19 11:32:59;;;;;;;;;;;;;;;10.43;100.00;99247.44;4882821;29;20017;-82
2023/10/19 11:35:45;;;;;;;;;;;;;;;10.45;100.00;99246.38;4903921;29;19924;-82
2023/10/19 11:38:30;;;;;;;;;;;;;;;10.51;100.00;99252.19;4906640;29;19970;-82
2023/10/19 11:41:16;;;;;;;;;;;;;;;10.54;100.00;99255.47;4911385;29;19931;-83
2023/10/19 11:44:02;;;;;;;;;;;;;;;10.59;100.00;99258.59;4902859;29;19942;-81
2023/10/19 11:46:48;;;;;;;;;;;;;;;10.68;100.00;99251.81;4903290;29;19954;-82
2023/10/19 11:49:34;;;;;;;;;;;;;;;10.78;100.00;99248.53;4898549;29;19978;-81
2023/10/19 11:52:20;;;;;;;;;;;;;;;10.83;100.00;99235.78;4903750;29;19935;-83
2023/10/19 11:55:06;;;;;;;;;;;;;;;10.89;100.00;99240.66;4905400;29;19927;-86
2023/10/19 11:57:52;;;;;;;;;;;;;;;10.88;100.00;99227.53;4904421;29;19931;-86
2023/10/19 12:00:37;;;;;;;;;;;;;;;10.88;100.00;99236.31;4880950;29;20025;-86
2023/10/19 12:03:26;;;;;;;;;;;;;;;10.87;100.00;99226.69;4902375;29;19935;-86
2023/10/19 12:06:13;;;;;;;;;;;;;;;10.87;100.00;99229.31;4903746;29;20025;-85
2023/10/19 12:09:05;;;;;;;;;;;;;;;10.84;100.00;99233.03;4901847;29;19923;-85
2023/10/19 12:11:55;;;;;;;;;;;;;;;10.84;100.00;99238.34;4906572;29;20365;-83
2023/10/19 12:14:41;;;;;;;;;;;;;;;10.83;100.00;99236.66;4901164;29;19932;-86
2023/10/19 12:17:27;;;;;;;;;;;;;;;10.84;100.00;99225.09;4901799;29;19923;-87
2023/10/19 12:20:14;;;;;;;;;;;;;;;10.82;100.00;99226.16;4908216;29;19970;-86
2023/10/19 12:23:00;;;;;;;;;;;;;;;10.77;100.00;99226.50;4907872;29;19931;-85
2023/10/19 12:25:46;;;;;;;;;;;;;;;10.71;100.00;99217.22;4912713;29;19934;-86
2023/10/19 12:28:32;;;;;;;;;;;;;;;10.70;100.00;99225.25;4931528;29;20445;-89
2023/10/19 12:31:22;;;;;;;;;;;;;;;10.68;100.00;99224.53;4917395;28;19930;-85
2023/10/19 12:34:07;;;;;;;;;;;;;;;10.68;100.00;99221.88;4941761;28;19994;-85
2023/10/19 12:36:56;;;;;;;;;;;;;;;10.65;100.00;99219.44;4941115;28;21848;-86
2023/10/19 12:39:48;;;;;;;;;;;;;;;10.62;100.00;99215.22;4941490;28;19941;-86
2023/10/19 12:42:35;;;;;;;;;;;;;;;10.60;100.00;99219.78;4941008;29;19934;-86
2023/10/19 12:45:21;;;;;;;;;;;;;;;10.58;100.00;99219.06;4927388;29;20484;-85
2023/10/19 12:48:07;;;;;;;;;;;;;;;10.55;100.00;99221.91;4915506;29;19954;-86
2023/10/19 12:50:53;;;;;;;;;;;;;;;10.51;100.00;99217.78;4939810;28;20326;-85
2023/10/19 12:53:39;;;;;;;;;;;;;;;10.45;100.00;99219.91;4939351;29;20059;-84
2023/10/19 12:56:24;;;;;;;;;;;;;;;10.40;100.00;99216.72;4938864;29;20404;-84
2023/10/19 12:59:17;;;;;;;;;;;;;;;10.35;100.00;99210.88;4926050;29;19934;-89
2023/10/19 13:02:03;;;;;;;;;;;;;;;10.31;100.00;99217.38;4943846;28;19931;-86
2023/10/19 13:04:49;;;;;;;;;;;;;;;10.31;100.00;99220.00;4924856;29;20598;-89
2023/10/19 13:07:34;;;;;;;;;;;;;;;10.28;100.00;99220.22;4914647;29;19934;-82
2023/10/19 13:10:20;;;;;;;;;;;;;;;10.26;100.00;99232.72;4939059;28;19981;-85
2023/10/19 13:13:06;;;;;;;;;;;;;;;10.23;100.00;99231.13;4911600;28;19950;-81
2023/10/19 13:15:53;;;;;;;;;;;;;;;10.21;100.00;99235.69;4932016;29;19935;-89
2023/10/19 13:18:40;;;;;;;;;;;;;;;10.19;100.00;99233.13;4925595;29;19937;-86
2023/10/19 13:21:32;;;;;;;;;;;;;;;10.14;100.00;99229.13;4937261;29;19926;-84
2023/10/19 13:24:20;;;;;;;;;;;;;;;10.13;100.00;99233.56;4922727;29;19946;-84
2023/10/19 13:27:06;;;;;;;;;;;;;;;10.12;100.00;99229.22;4918976;28;19926;-85
2023/10/19 13:29:51;;;;;;;;;;;;;;;10.11;100.00;99231.97;4912504;29;19950;-85
2023/10/19 13:32:37;;;;;;;;;;;;;;;10.07;100.00;99223.41;4919558;29;19931;-85
2023/10/19 13:35:26;;;;;;;;;;;;;;;10.04;100.00;99229.75;4908856;29;19942;-81
2023/10/19 13:38:15;;;;;;;;;;;;;;;10.00;100.00;99219.50;4935452;29;19935;-86
2023/10/19 13:41:10;;;;;;;;;;;;;;;9.99;100.00;99223.09;4920335;29;19934;-85
2023/10/19 13:43:56;;;;;;;;;;;;;;;9.96;100.00;99220.69;4939641;28;19927;-83
2023/10/19 13:46:42;;;;;;;;;;;;;;;9.92;100.00;99215.59;4938821;28;19937;-82
2023/10/19 13:49:31;;;;;;;;;;;;;;;9.91;100.00;99205.09;4938271;29;19949;-82
2023/10/19 13:52:19;;;;;;;;;;;;;;;9.87;100.00;99196.53;4912718;29;19931;-83
2023/10/19 13:55:07;;;;;;;;;;;;;;;9.80;100.00;99195.28;4932602;28;19927;-84
2023/10/19 13:57:54;;;;;;;;;;;;;;;9.76;100.00;99191.16;4927389;28;19934;-88
2023/10/19 14:00:43;;;;;;;;;;;;;;;9.73;100.00;99188.72;4941887;29;19926;-88
2023/10/19 14:03:30;;;;;;;;;;;;;;;9.73;100.00;99199.28;4923358;29;19958;-82
2023/10/19 14:06:17;;;;;;;;;;;;;;;9.70;100.00;99202.97;4938693;29;21617;-83
2023/10/19 14:09:04;;;;;;;;;;;;;;;9.65;100.00;99197.19;4925073;29;20029;-83
2023/10/19 14:11:50;;;;;;;;;;;;;;;9.61;100.00;99201.84;4937302;29;19930;-81
2023/10/19 14:14:36;;;;;;;;;;;;;;;9.59;100.00;99202.88;4925538;29;20421;-80
2023/10/19 14:17:21;;;;;;;;;;;;;;;9.58;100.00;99201.19;4939330;29;19927;-82
2023/10/19 14:20:12;;;;;;;;;;;;;;;9.55;100.00;99196.97;4937580;29;19985;-81
2023/10/19 14:22:58;;;;;;;;;;;;;;;9.54;100.00;99195.28;4938075;29;19931;-81
2023/10/19 14:25:44;;;;;;;;;;;;;;;9.54;100.00;99195.28;4922607;29;19931;-78
2023/10/19 14:28:29;;;;;;;;;;;;;;;9.53;100.00;99182.16;4936102;29;19966;-79
2023/10/19 14:31:16;;;;;;;;;;;;;;;9.50;100.00;99167.34;4934721;29;19937;-79
2023/10/19 14:34:03;;;;;;;;;;;;;;;9.48;100.00;99174.56;4921551;29;20038;-78
2023/10/19 14:36:49;;;;;;;;;;;;;;;9.44;100.00;99173.91;4936012;29;19934;-78
2023/10/19 14:39:35;;;;;;;;;;;;;;;9.43;100.00;99187.22;4934027;29;20553;-81
2023/10/19 14:42:20;;;;;;;;;;;;;;;9.43;100.00;99181.94;4922331;29;20315;-82
2023/10/19 14:45:09;;;;;;;;;;;;;;;9.41;100.00;99179.38;4919480;29;19923;-82
2023/10/19 14:47:55;;;;;;;;;;;;;;;9.40;100.00;99179.47;4937468;29;19926;-81
2023/10/19 14:50:42;;;;;;;;;;;;;;;9.36;100.00;99176.19;4934806;28;19931;-82